Time;durP1;ratioP1;P1;durP2;ratioP2;P2;SDS_P1;SDS_P2;PMS_P1;PMS_P2;Temp;Humidity;BMP_temperature;BMP_pressure;BME280_temperature;BME280_humidity;BME280_pressure;Samples;Min_cycle;Max_cycle;Signal;HPM_P1;HPM_P2
2021/05/09 00:00:38;;;;;;;2.50;2.30;;;12.90;1.00;;;;;;5015490;28;20231;-89
2021/05/09 00:03:04;;;;;;;2.20;2.10;;;12.90;1.00;;;;;;5016778;28;20188;-88
2021/05/09 00:05:30;;;;;;;2.17;2.07;;;12.90;1.00;;;;;;5020308;28;20221;-89
2021/05/09 00:07:56;;;;;;;2.17;2.00;;;13.00;1.00;;;;;;5021794;28;20436;-89
2021/05/09 00:10:22;;;;;;;2.53;1.80;;;13.00;1.00;;;;;;5016657;28;20504;-89
2021/05/09 00:12:48;;;;;;;2.67;2.03;;;13.00;1.00;;;;;;5016171;28;20215;-89
2021/05/09 00:15:20;;;;;;;3.10;1.97;;;13.00;1.00;;;;;;5015415;28;20475;-89
2021/05/09 00:17:45;;;;;;;2.00;1.67;;;13.00;1.00;;;;;;5015661;28;20400;-89
2021/05/09 00:20:12;;;;;;;2.60;2.33;;;13.00;1.00;;;;;;5014643;28;20431;-89
2021/05/09 00:22:38;;;;;;;2.50;2.30;;;12.90;1.00;;;;;;5014167;28;20176;-89
2021/05/09 00:25:05;;;;;;;2.90;2.30;;;12.90;1.00;;;;;;5014518;28;20780;-89
2021/05/09 00:27:30;;;;;;;3.70;2.00;;;13.00;1.00;;;;;;5015234;28;20187;-89
2021/05/09 00:29:56;;;;;;;2.60;2.17;;;12.90;1.00;;;;;;5014350;28;20416;-89
2021/05/09 00:32:22;;;;;;;3.10;2.80;;;12.90;1.00;;;;;;5015103;28;20209;-89
2021/05/09 00:34:47;;;;;;;2.27;2.07;;;12.90;1.00;;;;;;5015441;28;20215;-89
2021/05/09 00:37:13;;;;;;;1.90;1.63;;;12.80;1.00;;;;;;5014305;28;20185;-89
2021/05/09 00:39:38;;;;;;;2.00;1.90;;;12.80;1.00;;;;;;5015330;28;20286;-88
2021/05/09 00:42:06;;;;;;;2.77;2.50;;;12.80;24.10;;;;;;5014077;28;20177;-89
2021/05/09 00:44:33;;;;;;;2.33;2.23;;;12.80;44.70;;;;;;5014182;28;20634;-88
2021/05/09 00:47:05;;;;;;;2.40;2.20;;;12.80;73.10;;;;;;5014328;28;20932;-89
2021/05/09 00:49:30;;;;;;;1.87;1.77;;;12.80;99.90;;;;;;5014326;28;20420;-89
2021/05/09 00:51:59;;;;;;;2.43;1.90;;;12.80;99.90;;;;;;5014185;28;20456;-89
2021/05/09 00:54:26;;;;;;;2.20;2.00;;;12.90;99.90;;;;;;5014259;28;20177;-89
2021/05/09 00:56:55;;;;;;;1.80;1.70;;;13.00;25.90;;;;;;5013938;28;20475;-89
2021/05/09 00:59:22;;;;;;;1.63;1.53;;;13.00;1.00;;;;;;5014653;28;20516;-90
2021/05/09 01:01:48;;;;;;;2.20;2.07;;;13.00;1.00;;;;;;5014471;28;20463;-88
2021/05/09 01:04:16;;;;;;;1.60;1.50;;;13.00;1.00;;;;;;5015295;28;20435;-89
2021/05/09 01:06:43;;;;;;;2.10;1.90;;;13.00;1.00;;;;;;5014961;28;20447;-89
2021/05/09 01:09:09;;;;;;;4.47;2.43;;;13.00;1.00;;;;;;5015906;28;20480;-89
2021/05/09 01:11:35;;;;;;;1.77;1.67;;;12.90;1.00;;;;;;5014173;28;20447;-89
2021/05/09 01:14:01;;;;;;;1.63;1.53;;;12.80;57.20;;;;;;5013700;28;20536;-89
2021/05/09 01:16:27;;;;;;;1.97;1.87;;;12.90;99.90;;;;;;5013809;28;20511;-88
2021/05/09 01:18:52;;;;;;;2.20;2.10;;;12.90;99.90;;;;;;5013807;28;20192;-89
2021/05/09 01:21:18;;;;;;;1.97;1.87;;;12.90;99.90;;;;;;5013820;28;20204;-89
2021/05/09 01:23:43;;;;;;;3.13;1.80;;;12.90;99.90;;;;;;5013962;28;20181;-89
2021/05/09 01:26:09;;;;;;;1.60;1.53;;;12.90;99.90;;;;;;5014682;28;20572;-89
2021/05/09 01:28:35;;;;;;;1.97;1.87;;;12.90;99.90;;;;;;5029978;28;20205;-89
2021/05/09 01:31:01;;;;;;;2.20;2.10;;;12.90;99.90;;;;;;5031355;28;20193;-89
2021/05/09 01:33:26;;;;;;;1.60;1.50;;;12.90;99.90;;;;;;5022107;28;20519;-89
2021/05/09 01:35:52;;;;;;;2.27;2.07;;;12.90;99.90;;;;;;5016370;28;20204;-89
2021/05/09 01:38:18;;;;;;;6.20;1.90;;;12.90;99.90;;;;;;5014755;28;20188;-89
2021/05/09 01:40:43;;;;;;;5.47;1.97;;;12.90;99.90;;;;;;5014687;28;20179;-89
2021/05/09 01:43:09;;;;;;;1.93;1.80;;;13.00;99.90;;;;;;5015933;28;20177;-89
2021/05/09 01:45:34;;;;;;;1.67;1.57;;;13.00;99.90;;;;;;5031156;28;20245;-89
2021/05/09 01:48:00;;;;;;;1.70;1.37;;;13.10;99.90;;;;;;5034750;28;20173;-88
2021/05/09 01:50:25;;;;;;;2.10;2.00;;;13.10;99.90;;;;;;5020688;28;20181;-89
2021/05/09 01:52:51;;;;;;;2.43;1.77;;;13.10;86.90;;;;;;5016434;28;20213;-88
2021/05/09 01:55:21;;;;;;;2.20;2.00;;;13.20;78.00;;;;;;5016839;28;20212;-90
2021/05/09 01:57:47;;;;;;;1.90;1.47;;;13.20;1.00;;;;;;5017966;28;20193;-88
2021/05/09 02:00:15;;;;;;;2.20;1.90;;;13.20;1.00;;;;;;5018878;28;20473;-89
2021/05/09 02:02:40;;;;;;;2.00;1.73;;;13.20;1.00;;;;;;5018189;28;20177;-89
2021/05/09 02:05:07;;;;;;;3.03;1.87;;;13.20;1.00;;;;;;5017204;28;20421;-89
2021/05/09 02:07:33;;;;;;;1.43;1.40;;;13.30;1.00;;;;;;5017450;28;20216;-89
2021/05/09 02:09:59;;;;;;;1.70;1.60;;;13.30;1.00;;;;;;5016755;28;20478;-90
2021/05/09 02:12:24;;;;;;;2.00;1.90;;;13.30;1.00;;;;;;5017073;28;20979;-89
2021/05/09 02:14:51;;;;;;;2.13;1.93;;;13.40;1.00;;;;;;5017367;28;20266;-89
2021/05/09 02:17:18;;;;;;;2.37;1.73;;;13.40;1.00;;;;;;5016512;28;20257;-88
2021/05/09 02:19:44;;;;;;;1.90;1.80;;;13.40;1.00;;;;;;5017174;28;20439;-89
2021/05/09 02:22:10;;;;;;;2.00;1.50;;;13.40;1.00;;;;;;5016785;28;20423;-89
2021/05/09 02:24:35;;;;;;;1.83;1.73;;;13.40;1.00;;;;;;5016915;28;20412;-88
2021/05/09 02:27:01;;;;;;;1.83;1.73;;;13.30;1.00;;;;;;5016641;28;20184;-89
2021/05/09 02:29:26;;;;;;;1.90;1.80;;;13.30;1.00;;;;;;5016551;28;20173;-89
2021/05/09 02:31:52;;;;;;;1.97;1.80;;;13.30;1.00;;;;;;5016702;28;20204;-89
2021/05/09 02:34:17;;;;;;;1.90;1.80;;;13.40;1.00;;;;;;5016381;28;20185;-89
2021/05/09 02:36:44;;;;;;;6.37;3.40;;;13.40;1.00;;;;;;5016165;28;20181;-89
2021/05/09 02:39:11;;;;;;;2.00;1.70;;;13.30;1.00;;;;;;5016656;28;20588;-88
2021/05/09 02:41:37;;;;;;;2.60;2.17;;;13.30;1.00;;;;;;5016487;28;20433;-89
2021/05/09 02:44:03;;;;;;;1.60;1.50;;;13.30;1.00;;;;;;5017674;28;20424;-89
2021/05/09 02:46:29;;;;;;;1.87;1.77;;;13.40;1.00;;;;;;5018981;28;20618;-89
2021/05/09 02:48:55;;;;;;;2.57;1.80;;;13.40;1.00;;;;;;5019678;28;20474;-88
2021/05/09 02:51:20;;;;;;;2.23;2.03;;;13.40;1.00;;;;;;5020097;28;20273;-89
2021/05/09 02:53:46;;;;;;;1.87;1.77;;;13.40;1.00;;;;;;5019704;28;20208;-89
2021/05/09 02:56:12;;;;;;;2.03;1.93;;;13.40;1.00;;;;;;5021309;28;20229;-88
2021/05/09 02:58:37;;;;;;;2.00;1.90;;;13.40;27.60;;;;;;5025508;28;20173;-89
2021/05/09 03:01:03;;;;;;;1.57;1.47;;;13.40;23.70;;;;;;5023545;28;20196;-89
2021/05/09 03:03:29;;;;;;;1.30;1.20;;;13.30;50.10;;;;;;5023498;28;20247;-89
2021/05/09 03:05:54;;;;;;;1.90;1.80;;;13.30;99.90;;;;;;5020502;28;20656;-89
2021/05/09 03:08:20;;;;;;;2.10;2.00;;;13.30;99.90;;;;;;5020254;28;20177;-89
2021/05/09 03:10:46;;;;;;;1.80;1.70;;;13.30;99.90;;;;;;5018691;28;20177;-89
2021/05/09 03:13:11;;;;;;;2.50;1.87;;;13.40;99.90;;;;;;5018286;28;20220;-88
2021/05/09 03:15:37;;;;;;;1.87;1.77;;;13.30;99.90;;;;;;5019428;28;20656;-89
2021/05/09 03:18:03;;;;;;;1.90;1.80;;;13.30;99.90;;;;;;5016989;28;20201;-88
2021/05/09 03:20:28;;;;;;;1.97;1.87;;;13.30;99.90;;;;;;5016509;28;20254;-88
2021/05/09 03:22:54;;;;;;;2.27;1.90;;;13.30;99.90;;;;;;5015907;28;20633;-89
2021/05/09 03:25:20;;;;;;;2.60;2.27;;;13.40;99.90;;;;;;5015510;28;20188;-89
2021/05/09 03:27:45;;;;;;;1.80;1.60;;;13.30;99.90;;;;;;5015188;28;20424;-89
2021/05/09 03:30:11;;;;;;;2.00;1.90;;;13.30;99.90;;;;;;5015400;28;20651;-89
2021/05/09 03:32:37;;;;;;;2.60;2.13;;;13.30;99.90;;;;;;5016231;28;20197;-89
2021/05/09 03:35:07;;;;;;;4.67;1.97;;;13.30;99.90;;;;;;5015832;28;20451;-88
2021/05/09 03:37:32;;;;;;;1.93;1.83;;;13.30;99.90;;;;;;5015782;28;20184;-89
2021/05/09 03:39:58;;;;;;;2.93;2.00;;;13.30;99.90;;;;;;5016029;28;20425;-89
2021/05/09 03:42:23;;;;;;;1.70;1.60;;;13.20;99.90;;;;;;5016037;28;20196;-89
2021/05/09 03:44:49;;;;;;;1.70;1.53;;;13.20;99.90;;;;;;5015311;28;20236;-85
2021/05/09 03:47:15;;;;;;;4.17;1.90;;;13.20;99.90;;;;;;5015732;28;20181;-89
2021/05/09 03:49:41;;;;;;;2.73;2.20;;;13.20;99.90;;;;;;5014745;28;20181;-89
2021/05/09 03:52:07;;;;;;;1.80;1.70;;;13.10;99.90;;;;;;5015051;28;20213;-89
2021/05/09 03:54:33;;;;;;;2.00;1.80;;;13.20;99.90;;;;;;5014758;28;20418;-89
2021/05/09 03:56:58;;;;;;;2.40;2.17;;;13.10;99.90;;;;;;5014885;28;20563;-90
2021/05/09 03:59:26;;;;;;;2.97;2.60;;;13.10;99.90;;;;;;5015252;28;20173;-89
2021/05/09 04:01:52;;;;;;;1.93;1.80;;;13.10;99.90;;;;;;5016342;28;20199;-90
2021/05/09 04:04:17;;;;;;;2.07;1.90;;;13.10;99.90;;;;;;5016014;28;20412;-89
2021/05/09 04:06:43;;;;;;;1.60;1.50;;;13.10;99.90;;;;;;5019264;28;20177;-90
2021/05/09 04:09:09;;;;;;;2.00;1.90;;;13.10;99.90;;;;;;5016458;28;20269;-87
2021/05/09 04:11:34;;;;;;;2.07;1.87;;;13.10;99.90;;;;;;5014869;28;20173;-90
2021/05/09 04:14:00;;;;;;;2.10;1.87;;;13.20;99.90;;;;;;5014447;28;20668;-89
2021/05/09 04:16:26;;;;;;;2.43;1.80;;;13.10;99.90;;;;;;5016225;28;20174;-89
2021/05/09 04:18:51;;;;;;;1.80;1.70;;;13.10;99.90;;;;;;5016145;28;20185;-88
2021/05/09 04:21:17;;;;;;;1.73;1.63;;;13.30;99.90;;;;;;5019217;28;20184;-89
2021/05/09 04:23:42;;;;;;;2.30;2.00;;;13.40;99.90;;;;;;5019135;28;20218;-89
2021/05/09 04:26:08;;;;;;;1.93;1.83;;;13.40;99.90;;;;;;5020100;28;20203;-89
2021/05/09 04:28:33;;;;;;;2.00;1.90;;;13.40;99.90;;;;;;5017795;28;20244;-90
2021/05/09 04:30:59;;;;;;;1.70;1.60;;;13.40;99.90;;;;;;5015102;28;20189;-89
2021/05/09 04:33:28;;;;;;;1.70;1.60;;;13.50;21.60;;;;;;5014559;28;20213;-88
2021/05/09 04:35:54;;;;;;;2.03;1.83;;;13.50;1.00;;;;;;5014545;28;20189;-89
2021/05/09 04:38:20;;;;;;;1.80;1.70;;;13.60;1.00;;;;;;5014175;28;20423;-90
2021/05/09 04:40:46;;;;;;;2.13;1.80;;;13.70;1.00;;;;;;5014151;28;20511;-89
2021/05/09 04:43:15;;;;;;;1.80;1.70;;;13.70;99.90;;;;;;5014234;28;20451;-89
2021/05/09 04:45:43;;;;;;;2.23;1.93;;;13.80;99.90;;;;;;5030840;28;20420;-90
2021/05/09 04:48:09;;;;;;;3.50;2.30;;;13.80;1.00;;;;;;5035456;28;20484;-90
2021/05/09 04:50:35;;;;;;;1.73;1.63;;;13.80;1.00;;;;;;5020180;28;20973;-90
2021/05/09 04:53:00;;;;;;;1.90;1.70;;;13.80;1.00;;;;;;5032098;28;20213;-89
2021/05/09 04:55:26;;;;;;;2.37;2.17;;;13.80;1.00;;;;;;5031529;28;20184;-87
2021/05/09 04:57:52;;;;;;;2.70;2.50;;;13.90;1.00;;;;;;5020944;28;20178;-88
2021/05/09 05:00:18;;;;;;;1.50;1.40;;;13.90;99.90;;;;;;5015394;28;20196;-89
2021/05/09 05:02:44;;;;;;;1.90;1.73;;;13.90;99.90;;;;;;5016072;28;20177;-87
2021/05/09 05:05:11;;;;;;;1.83;1.73;;;14.20;99.90;;;;;;5016363;28;20177;-89
2021/05/09 05:07:37;;;;;;;1.80;1.70;;;14.80;99.90;;;;;;5014006;28;20428;-89
2021/05/09 05:10:04;;;;;;;1.70;1.60;;;15.10;99.90;;;;;;5014269;28;20466;-89
2021/05/09 05:12:29;;;;;;;1.70;1.60;;;15.50;1.00;;;;;;5014267;28;20592;-89
2021/05/09 05:14:55;;;;;;;2.13;1.93;;;15.70;1.00;;;;;;5014708;28;20412;-90
2021/05/09 05:17:20;;;;;;;2.00;1.90;;;15.70;99.90;;;;;;5014166;28;20204;-90
2021/05/09 05:19:46;;;;;;;1.70;1.60;;;15.60;99.90;;;;;;5015365;28;20208;-86
2021/05/09 05:22:12;;;;;;;1.60;1.50;;;15.40;99.90;;;;;;5013604;28;20172;-89
2021/05/09 05:24:37;;;;;;;3.93;1.80;;;15.60;99.90;;;;;;5014848;28;20180;-89
2021/05/09 05:27:03;;;;;;;2.13;2.00;;;15.80;99.90;;;;;;5016499;28;20284;-88
2021/05/09 05:29:29;;;;;;;3.43;2.77;;;16.20;99.90;;;;;;5018920;28;20184;-89
2021/05/09 05:31:55;;;;;;;2.60;2.00;;;16.20;99.90;;;;;;5019289;28;20420;-90
2021/05/09 05:37:42;;;;;;;1.60;1.50;;;16.50;99.90;;;;;;5019221;28;20164;-89
2021/05/09 05:40:08;;;;;;;4.83;1.90;;;16.70;16.30;;;;;;5018124;28;20428;-92
2021/05/09 05:42:34;;;;;;;2.13;2.03;;;17.00;1.00;;;;;;5017877;28;20268;-89
2021/05/09 05:44:59;;;;;;;1.73;1.63;;;17.00;17.10;;;;;;5018448;28;20848;-88
2021/05/09 05:47:25;;;;;;;10.90;2.40;;;17.10;24.60;;;;;;5019677;28;20181;-90
2021/05/09 05:49:54;;;;;;;2.00;1.90;;;17.20;16.80;;;;;;5019813;28;20231;-87
2021/05/09 05:52:20;;;;;;;1.77;1.67;;;17.70;1.00;;;;;;5019372;28;20300;-89
2021/05/09 05:54:46;;;;;;;2.57;1.93;;;18.10;1.00;;;;;;5018518;28;20559;-89
2021/05/09 05:57:11;;;;;;;1.63;1.53;;;18.40;1.00;;;;;;5018399;28;20764;-88
2021/05/09 05:59:37;;;;;;;2.60;1.83;;;18.90;1.00;;;;;;5019235;28;20188;-90
2021/05/09 06:02:02;;;;;;;1.63;1.53;;;19.00;1.00;;;;;;5017176;28;20185;-90
2021/05/09 06:04:28;;;;;;;1.73;1.63;;;19.30;1.00;;;;;;5018712;28;20219;-90
2021/05/09 06:06:53;;;;;;;2.10;2.00;;;19.90;1.00;;;;;;5017943;28;20181;-90
2021/05/09 06:12:41;;;;;;;2.40;2.20;;;20.70;99.90;;;;;;5019444;28;20224;-91
2021/05/09 06:15:07;;;;;;;2.30;2.10;;;20.90;99.90;;;;;;5017936;28;20919;-90
2021/05/09 06:17:33;;;;;;;2.20;2.10;;;21.20;99.90;;;;;;5017616;28;20197;-90
2021/05/09 06:19:59;;;;;;;2.07;1.97;;;21.30;99.90;;;;;;5018900;28;20439;-90
2021/05/09 06:22:24;;;;;;;2.23;2.10;;;21.30;99.90;;;;;;5020269;28;20211;-90
2021/05/09 06:24:50;;;;;;;4.40;2.00;;;21.60;99.90;;;;;;5017889;28;20173;-91
2021/05/09 06:27:15;;;;;;;1.60;1.50;;;21.90;99.90;;;;;;5018071;28;20255;-90
2021/05/09 06:29:41;;;;;;;2.97;2.00;;;21.70;99.90;;;;;;5017115;28;20207;-90
2021/05/09 06:32:07;;;;;;;1.70;1.60;;;21.20;99.90;;;;;;5016484;28;20209;-90
2021/05/09 06:34:33;;;;;;;1.77;1.67;;;21.40;99.90;;;;;;5017548;28;20429;-86
2021/05/09 06:36:58;;;;;;;1.40;1.30;;;21.50;99.90;;;;;;5016645;28;20177;-90
2021/05/09 06:39:29;;;;;;;1.50;1.40;;;21.80;99.90;;;;;;5016510;28;20625;-90
2021/05/09 06:41:57;;;;;;;2.20;2.10;;;22.20;99.90;;;;;;5017333;28;20184;-90
2021/05/09 06:44:27;;;;;;;1.80;1.70;;;22.20;99.90;;;;;;5017244;28;20463;-90
2021/05/09 06:46:52;;;;;;;2.30;2.10;;;22.60;99.90;;;;;;5017566;28;20976;-90
2021/05/09 06:49:18;;;;;;;1.80;1.70;;;22.60;99.90;;;;;;5016200;28;20428;-87
2021/05/09 06:51:43;;;;;;;1.67;1.50;;;22.60;99.90;;;;;;5016224;28;20173;-89
2021/05/09 06:54:09;;;;;;;2.30;1.67;;;22.60;99.90;;;;;;5016475;28;20212;-90
2021/05/09 06:56:36;;;;;;;1.20;1.10;;;22.90;99.90;;;;;;5016677;28;20229;-91
2021/05/09 06:59:03;;;;;;;1.80;1.70;;;22.70;99.90;;;;;;5021837;28;20726;-89
2021/05/09 07:01:29;;;;;;;1.50;1.40;;;22.80;99.90;;;;;;5025353;28;20494;-88
2021/05/09 07:03:55;;;;;;;2.07;1.70;;;22.80;99.90;;;;;;5035593;28;20492;-85
2021/05/09 07:06:21;;;;;;;2.20;1.30;;;23.40;99.90;;;;;;5038294;28;20424;-86
2021/05/09 07:08:46;;;;;;;1.80;1.60;;;23.70;99.90;;;;;;5017415;28;20479;-88
2021/05/09 07:11:12;;;;;;;3.70;2.20;;;24.00;99.90;;;;;;5016790;28;20276;-90
2021/05/09 07:13:37;;;;;;;2.13;2.03;;;24.50;99.90;;;;;;5022265;28;20303;-89
2021/05/09 07:16:03;;;;;;;2.20;2.10;;;24.50;99.90;;;;;;5022265;28;20185;-86
2021/05/09 07:18:30;;;;;;;5.53;2.10;;;24.40;99.90;;;;;;5027996;28;20179;-89
2021/05/09 07:20:57;;;;;;;2.47;2.30;;;24.10;99.90;;;;;;5019348;28;20181;-89
2021/05/09 07:26:47;;;;;;;4.27;2.00;;;25.20;99.90;;;;;;5017907;28;20403;-88
2021/05/09 07:32:34;;;;;;;2.10;2.00;;;25.50;99.90;;;;;;5015381;28;20443;-89
2021/05/09 07:35:00;;;;;;;2.00;1.90;;;25.20;99.90;;;;;;5016550;28;20808;-89
2021/05/09 07:37:25;;;;;;;2.60;1.20;;;25.50;99.90;;;;;;5017280;28;20699;-88
2021/05/09 07:39:51;;;;;;;1.40;1.30;;;25.70;99.90;;;;;;5018798;28;20219;-88
2021/05/09 07:42:16;;;;;;;1.37;1.27;;;25.40;99.90;;;;;;5016982;28;20185;-89
2021/05/09 07:44:42;;;;;;;1.40;1.30;;;25.60;99.90;;;;;;5017320;28;20181;-88
2021/05/09 07:47:07;;;;;;;1.60;1.50;;;26.30;99.90;;;;;;5018134;28;20268;-88
2021/05/09 07:49:33;;;;;;;1.93;1.47;;;26.30;99.90;;;;;;5028141;28;20173;-86
2021/05/09 07:51:58;;;;;;;1.83;1.57;;;26.30;99.90;;;;;;5030720;28;20193;-88
2021/05/09 07:54:24;;;;;;;1.50;1.40;;;26.60;99.90;;;;;;5015808;28;20236;-88
2021/05/09 07:56:49;;;;;;;1.43;1.33;;;27.20;99.90;;;;;;5016353;28;20229;-88
2021/05/09 07:59:15;;;;;;;1.93;1.83;;;26.70;99.90;;;;;;5016363;28;20667;-89
2021/05/09 08:01:40;;;;;;;1.80;1.70;;;26.80;99.90;;;;;;5017604;28;20655;-88
2021/05/09 08:04:06;;;;;;;2.00;1.80;;;27.10;99.90;;;;;;5015765;28;20173;-89
2021/05/09 08:06:32;;;;;;;1.93;1.47;;;27.00;99.90;;;;;;5019014;28;20208;-86
2021/05/09 08:08:57;;;;;;;1.90;1.43;;;27.00;99.90;;;;;;5018560;28;20239;-88
2021/05/09 08:11:23;;;;;;;2.73;1.53;;;26.80;99.90;;;;;;5015537;28;20189;-88
2021/05/09 08:17:10;;;;;;;1.73;1.63;;;27.10;99.90;;;;;;5016682;28;20275;-86
2021/05/09 08:19:36;;;;;;;2.23;2.03;;;27.00;99.90;;;;;;5019489;28;20447;-83
2021/05/09 08:22:02;;;;;;;1.40;1.30;;;27.00;99.90;;;;;;5018454;28;20752;-87
2021/05/09 08:24:29;;;;;;;1.87;1.20;;;27.30;99.90;;;;;;5023905;28;20177;-88
2021/05/09 08:26:55;;;;;;;1.63;1.13;;;27.10;99.90;;;;;;5022916;28;20730;-87
2021/05/09 08:29:20;;;;;;;1.53;1.40;;;27.00;99.90;;;;;;5017736;28;20408;-88
2021/05/09 08:31:46;;;;;;;1.57;1.47;;;26.90;99.90;;;;;;5016550;28;20185;-88
2021/05/09 08:34:12;;;;;;;1.83;1.50;;;27.30;99.90;;;;;;5018542;28;20185;-89
2021/05/09 08:36:37;;;;;;;1.27;1.17;;;27.80;99.90;;;;;;5019240;28;20170;-88
2021/05/09 08:39:03;;;;;;;1.30;1.20;;;28.10;99.90;;;;;;5017009;28;20609;-87
2021/05/09 08:41:29;;;;;;;1.43;1.33;;;27.40;99.90;;;;;;5014876;28;20660;-89
2021/05/09 08:43:55;;;;;;;1.67;1.50;;;27.70;99.90;;;;;;5016187;28;20452;-89
2021/05/09 08:46:21;;;;;;;1.40;1.30;;;27.60;99.90;;;;;;5018271;28;20186;-89
2021/05/09 08:48:54;;;;;;;1.83;1.67;;;27.90;99.90;;;;;;5016668;28;20212;-89
2021/05/09 08:51:19;;;;;;;1.93;1.27;;;27.90;99.90;;;;;;5015621;28;20424;-89
2021/05/09 08:53:48;;;;;;;2.17;1.40;;;27.40;99.90;;;;;;5015086;28;20472;-87
2021/05/09 08:56:14;;;;;;;2.83;1.50;;;27.80;99.90;;;;;;5015995;28;20216;-89
2021/05/09 08:58:39;;;;;;;2.33;1.63;;;27.90;99.90;;;;;;5016497;28;20439;-87
2021/05/09 09:01:05;;;;;;;1.87;1.43;;;28.20;99.90;;;;;;5015224;28;20436;-89
2021/05/09 09:03:34;;;;;;;1.50;1.40;;;28.30;99.90;;;;;;5015547;28;20177;-87
2021/05/09 09:06:02;;;;;;;1.50;1.40;;;28.30;99.90;;;;;;5015884;28;20191;-88
2021/05/09 09:08:27;;;;;;;1.60;1.50;;;28.50;99.90;;;;;;5017037;28;20945;-86
2021/05/09 09:10:53;;;;;;;1.60;1.50;;;29.30;99.90;;;;;;5019461;28;20563;-87
2021/05/09 09:13:24;;;;;;;5.53;1.70;;;29.40;99.90;;;;;;5018569;28;20254;-88
2021/05/09 09:15:57;;;;;;;2.70;1.70;;;29.60;99.90;;;;;;5016518;28;20171;-89
2021/05/09 09:18:41;;;;;;;1.67;1.40;;;29.90;99.90;;;;;;5016018;28;20429;-88
2021/05/09 09:21:27;;;;;;;1.70;1.60;;;29.90;99.90;;;;;;5016645;28;20419;-86
2021/05/09 09:24:05;;;;;;;1.90;1.50;;;29.90;99.90;;;;;;5018618;28;20396;-87
2021/05/09 09:26:48;;;;;;;2.40;1.57;;;30.90;99.90;;;;;;5016880;28;20478;-89
2021/05/09 09:29:30;;;;;;;1.70;1.60;;;30.30;99.90;;;;;;5015164;28;20507;-89
2021/05/09 09:31:58;;;;;;;1.60;1.50;;;29.80;99.90;;;;;;5014816;28;20507;-88
2021/05/09 09:34:39;;;;;;;1.67;1.57;;;29.60;99.90;;;;;;5016987;28;20519;-84
2021/05/09 09:37:06;;;;;;;3.27;3.07;;;29.90;99.90;;;;;;5014729;28;20420;-89
2021/05/09 09:39:59;;;;;;;1.53;1.20;;;29.80;99.90;;;;;;5015742;28;20424;-89
2021/05/09 09:42:37;;;;;;;2.30;1.70;;;30.30;99.90;;;;;;5015090;28;20767;-89
2021/05/09 09:45:28;;;;;;;1.83;1.60;;;30.10;99.90;;;;;;5017875;28;20505;-88
2021/05/09 09:48:02;;;;;;;1.93;1.70;;;29.80;99.90;;;;;;5015962;28;20420;-88
2021/05/09 09:50:37;;;;;;;1.90;1.80;;;29.90;99.90;;;;;;5015702;28;20447;-89
2021/05/09 09:53:31;;;;;;;1.67;1.57;;;30.10;99.90;;;;;;5015496;28;20554;-86
2021/05/09 09:56:07;;;;;;;3.53;1.60;;;30.10;99.90;;;;;;5015499;28;20448;-86
2021/05/09 09:59:07;;;;;;;7.33;6.60;;;30.20;99.90;;;;;;5016710;28;20427;-89
2021/05/09 10:01:37;;;;;;;1.83;1.73;;;30.00;99.90;;;;;;5015591;28;20462;-87
2021/05/09 10:04:08;;;;;;;3.87;1.60;;;30.50;99.90;;;;;;5010943;28;20420;-88
2021/05/09 10:06:38;;;;;;;1.50;1.40;;;30.70;99.90;;;;;;5016253;28;20428;-87
2021/05/09 10:09:04;;;;;;;1.80;1.70;;;30.40;99.90;;;;;;5015788;28;20425;-88
2021/05/09 10:11:30;;;;;;;1.63;1.40;;;30.70;99.90;;;;;;5016395;28;20420;-87
2021/05/09 10:13:57;;;;;;;2.10;1.63;;;30.80;99.90;;;;;;5015136;28;20517;-87
2021/05/09 10:16:25;;;;;;;1.60;1.50;;;30.60;99.90;;;;;;5017177;28;20416;-89
2021/05/09 10:19:00;;;;;;;1.30;1.20;;;31.20;99.90;;;;;;5018811;28;20497;-87
2021/05/09 10:21:30;;;;;;;1.73;1.60;;;31.40;99.90;;;;;;5019039;28;20798;-89
2021/05/09 10:27:17;;;;;;;1.60;1.50;;;31.20;99.90;;;;;;5019091;28;20419;-88
2021/05/09 10:29:46;;;;;;;1.80;1.50;;;31.20;99.90;;;;;;5020627;28;20946;-89
2021/05/09 10:32:18;;;;;;;1.40;1.30;;;31.60;99.90;;;;;;5016248;28;20181;-86
2021/05/09 10:34:59;;;;;;;1.83;1.37;;;31.30;99.90;;;;;;5019564;28;20432;-87
2021/05/09 10:37:40;;;;;;;1.70;1.60;;;31.40;99.90;;;;;;5019015;28;20401;-89
2021/05/09 10:40:19;;;;;;;1.20;1.20;;;31.60;99.90;;;;;;5016735;28;20480;-88
2021/05/09 10:42:45;;;;;;;1.40;1.30;;;32.00;99.90;;;;;;5017268;28;20583;-89
2021/05/09 10:45:26;;;;;;;1.70;1.60;;;31.40;99.90;;;;;;5017730;28;20520;-89
2021/05/09 10:51:07;;;;;;;1.67;1.40;;;32.20;99.90;;;;;;5021329;28;20413;-89
2021/05/09 10:53:36;;;;;;;1.87;1.77;;;32.40;99.70;;;;;;5025886;28;20439;-89
2021/05/09 10:56:05;;;;;;;1.63;1.53;;;31.40;99.70;;;;;;5033480;28;20466;-88
2021/05/09 10:58:49;;;;;;;2.47;2.27;;;31.60;99.70;;;;;;5021189;28;20428;-86
2021/05/09 11:01:19;;;;;;;2.20;2.10;;;32.10;99.20;;;;;;5018137;28;20424;-89
2021/05/09 11:03:49;;;;;;;4.57;1.80;;;31.50;99.90;;;;;;5017975;28;20555;-85
2021/05/09 11:06:20;;;;;;;1.60;1.43;;;31.10;99.80;;;;;;5017711;28;20420;-89
2021/05/09 11:09:00;;;;;;;1.80;1.70;;;31.10;99.70;;;;;;5019628;28;20516;-89
2021/05/09 11:11:25;;;;;;;1.87;1.77;;;30.90;99.20;;;;;;5017678;28;20424;-89
2021/05/09 11:16:34;;;;;;;1.80;1.70;;;31.10;99.00;;;;;;5018057;28;20184;-87
2021/05/09 11:19:09;;;;;;;1.50;1.40;;;30.50;99.80;;;;;;5018620;28;20392;-87
2021/05/09 11:21:52;;;;;;;2.03;1.53;;;30.10;99.90;;;;;;5017238;28;20499;-89
2021/05/09 11:24:19;;;;;;;2.20;1.90;;;29.60;99.90;;;;;;5017283;28;20505;-88
2021/05/09 11:26:47;;;;;;;1.90;1.80;;;29.60;99.90;;;;;;5022527;28;20519;-85
2021/05/09 11:29:18;;;;;;;1.43;1.37;;;29.10;99.90;;;;;;5026177;28;20486;-89
2021/05/09 11:31:56;;;;;;;2.13;1.47;;;29.10;99.90;;;;;;5022557;28;20571;-88
2021/05/09 11:34:23;;;;;;;1.80;1.70;;;29.20;99.90;;;;;;5018794;28;20884;-90
2021/05/09 11:36:51;;;;;;;1.60;1.50;;;29.20;99.90;;;;;;5017419;28;20442;-87
2021/05/09 11:39:19;;;;;;;1.93;1.03;;;29.00;99.90;;;;;;5016829;28;20459;-90
2021/05/09 11:41:48;;;;;;;1.37;1.33;;;28.90;99.90;;;;;;5024518;28;20423;-87
2021/05/09 11:44:14;;;;;;;1.47;1.37;;;28.80;99.90;;;;;;5028423;28;20518;-88
2021/05/09 11:46:39;;;;;;;1.73;1.63;;;28.80;99.90;;;;;;5028736;28;20447;-87
2021/05/09 11:52:32;;;;;;;3.60;1.50;;;29.30;99.90;;;;;;5018188;28;20160;-89
2021/05/09 11:54:59;;;;;;;2.10;1.30;;;29.20;99.90;;;;;;5017277;28;20807;-85
2021/05/09 11:57:26;;;;;;;3.07;1.60;;;29.10;99.90;;;;;;5015903;28;20460;-85
2021/05/09 12:00:06;;;;;;;3.13;1.40;;;29.20;99.90;;;;;;5016329;28;20448;-89
2021/05/09 12:02:33;;;;;;;2.90;1.57;;;29.40;99.90;;;;;;5015605;28;20460;-89
2021/05/09 12:05:02;;;;;;;1.73;1.63;;;29.20;99.90;;;;;;5016724;28;20534;-87
2021/05/09 12:07:42;;;;;;;1.50;1.40;;;29.20;99.90;;;;;;5017678;28;20892;-86
2021/05/09 12:10:25;;;;;;;2.30;1.87;;;29.00;99.90;;;;;;5018440;28;20396;-90
2021/05/09 12:13:05;;;;;;;1.70;1.60;;;29.10;99.90;;;;;;5017938;28;20480;-86
2021/05/09 12:15:33;;;;;;;1.83;1.37;;;29.60;99.90;;;;;;5016338;28;20456;-89
2021/05/09 12:17:59;;;;;;;1.70;1.60;;;29.00;99.90;;;;;;5014847;28;20412;-88
2021/05/09 12:20:33;;;;;;;1.50;1.40;;;29.20;99.90;;;;;;5016006;28;20439;-84
2021/05/09 12:23:02;;;;;;;1.70;1.60;;;29.60;99.70;;;;;;5015394;28;20962;-92
2021/05/09 12:25:43;;;;;;;1.50;1.40;;;29.30;99.40;;;;;;5016312;28;20916;-89
2021/05/09 12:28:14;;;;;;;1.40;1.30;;;29.10;99.90;;;;;;5017116;28;20431;-87
2021/05/09 12:30:42;;;;;;;1.50;1.40;;;28.80;99.90;;;;;;5015626;28;20439;-90
2021/05/09 12:33:08;;;;;;;1.87;1.53;;;28.80;99.90;;;;;;5015926;28;20935;-84
2021/05/09 12:36:12;;;;;;;1.50;1.40;;;28.80;99.90;;;;;;5014922;28;20467;-89
2021/05/09 12:38:38;;;;;;;1.83;1.30;;;28.90;99.60;;;;;;5014525;28;20412;-89
2021/05/09 12:41:11;;;;;;;1.43;1.20;;;29.00;99.50;;;;;;5016347;28;20772;-88
2021/05/09 12:43:44;;;;;;;1.67;1.57;;;29.10;99.00;;;;;;5014596;28;20223;-90
2021/05/09 12:46:29;;;;;;;2.10;1.53;;;28.90;99.10;;;;;;5016134;28;20899;-89
2021/05/09 12:49:09;;;;;;;2.50;1.60;;;29.20;99.40;;;;;;5015197;28;20424;-89
2021/05/09 12:51:35;;;;;;;1.47;1.37;;;29.30;98.80;;;;;;5016023;28;20392;-89
2021/05/09 12:54:00;;;;;;;1.80;1.67;;;29.50;98.60;;;;;;5016202;28;20451;-88
2021/05/09 12:56:31;;;;;;;4.27;1.73;;;29.50;98.10;;;;;;5016442;28;20225;-88
2021/05/09 12:59:00;;;;;;;2.10;1.27;;;29.80;97.60;;;;;;5015743;28;20209;-91
2021/05/09 13:01:26;;;;;;;1.70;1.60;;;29.50;97.60;;;;;;5017484;28;20424;-88
2021/05/09 13:03:51;;;;;;;2.43;1.40;;;29.80;97.80;;;;;;5016928;28;20462;-90
2021/05/09 13:06:17;;;;;;;1.73;1.63;;;29.80;97.40;;;;;;5016734;28;20447;-89
2021/05/09 13:08:42;;;;;;;1.40;1.30;;;29.80;97.60;;;;;;5014833;28;20284;-91
2021/05/09 13:11:08;;;;;;;1.90;1.70;;;29.30;97.80;;;;;;5014940;28;20181;-89
2021/05/09 13:13:33;;;;;;;1.60;1.50;;;29.40;97.90;;;;;;5016772;28;20184;-89
2021/05/09 13:15:59;;;;;;;1.30;1.20;;;29.20;97.80;;;;;;5014248;28;20173;-89
2021/05/09 13:18:25;;;;;;;3.00;2.00;;;28.90;98.00;;;;;;5016121;28;20177;-87
2021/05/09 13:20:50;;;;;;;1.30;1.30;;;28.90;99.20;;;;;;5016702;28;20179;-89